Time;durP1;ratioP1;P1;durP2;ratioP2;P2;SDS_P1;SDS_P2;PMS_P1;PMS_P2;Temp;Humidity;BMP_temperature;BMP_pressure;BME280_temperature;BME280_humidity;BME280_pressure;Samples;Min_cycle;Max_cycle;Signal;HPM_P1;HPM_P2
2021/07/03 00:01:46;;;;;;;13.32;9.63;;;14.60;99.90;;;;;;6296850;28;20134;-78
2021/07/03 00:04:47;;;;;;;11.20;9.90;;;14.50;99.90;;;;;;6295848;28;20564;-78
2021/07/03 00:07:49;;;;;;;11.85;10.60;;;14.50;99.90;;;;;;6296015;28;20144;-78
2021/07/03 00:10:51;;;;;;;13.82;10.00;;;14.40;99.90;;;;;;6296163;28;20047;-78
2021/07/03 00:13:54;;;;;;;11.05;9.48;;;14.40;99.90;;;;;;6296117;28;20048;-77
2021/07/03 00:16:56;;;;;;;15.10;9.45;;;14.30;99.90;;;;;;6296155;28;20178;-78
2021/07/03 00:19:58;;;;;;;12.48;9.32;;;14.30;99.90;;;;;;6295834;28;20093;-78
2021/07/03 00:23:00;;;;;;;11.77;10.57;;;14.30;99.90;;;;;;6268074;28;20540;-77
2021/07/03 00:26:02;;;;;;;14.68;9.80;;;14.30;99.90;;;;;;6270072;28;20136;-78
2021/07/03 00:29:05;;;;;;;11.25;9.48;;;14.20;99.90;;;;;;6270968;28;20138;-78
2021/07/03 00:32:07;;;;;;;11.40;8.90;;;14.20;99.90;;;;;;6270516;28;20130;-78
2021/07/03 00:35:10;;;;;;;9.98;8.23;;;14.20;99.90;;;;;;6270545;28;20092;-78
2021/07/03 00:38:12;;;;;;;16.48;8.93;;;14.10;99.90;;;;;;6270565;28;20562;-78
2021/07/03 00:41:14;;;;;;;10.07;7.50;;;14.10;99.90;;;;;;6271199;28;20045;-78
2021/07/03 00:44:30;;;;;;;10.35;8.20;;;14.00;99.90;;;;;;6270431;28;20126;-78
2021/07/03 00:47:32;;;;;;;10.05;8.65;;;14.00;99.90;;;;;;6271882;28;20106;-78
2021/07/03 00:50:34;;;;;;;12.40;9.30;;;14.00;99.90;;;;;;6270702;28;20098;-78
2021/07/03 00:53:36;;;;;;;10.38;9.20;;;14.00;99.90;;;;;;6271217;28;20080;-78
2021/07/03 00:56:37;;;;;;;11.05;8.15;;;13.90;99.90;;;;;;6269896;28;20068;-78
2021/07/03 00:59:43;;;;;;;14.90;9.80;;;13.90;99.90;;;;;;6270467;28;20655;-77
2021/07/03 01:02:45;;;;;;;12.15;8.13;;;13.90;99.90;;;;;;6270625;28;20049;-78
2021/07/03 01:05:49;;;;;;;10.15;8.98;;;13.90;99.90;;;;;;6270886;28;20049;-78
2021/07/03 01:08:51;;;;;;;9.98;8.95;;;13.90;99.90;;;;;;6270676;28;20064;-78
2021/07/03 01:11:53;;;;;;;12.32;9.50;;;13.80;99.90;;;;;;6270232;28;20430;-78
2021/07/03 01:14:57;;;;;;;12.50;10.02;;;13.80;99.90;;;;;;6270330;28;20147;-78
2021/07/03 01:17:59;;;;;;;10.35;9.02;;;13.70;99.90;;;;;;6269819;28;20049;-78
2021/07/03 01:21:01;;;;;;;16.17;11.88;;;13.70;99.90;;;;;;6270902;28;20126;-77
2021/07/03 01:24:05;;;;;;;12.05;8.75;;;13.70;99.90;;;;;;6270025;28;20045;-77
2021/07/03 01:27:09;;;;;;;12.10;9.93;;;13.70;99.90;;;;;;6269991;28;20507;-78
2021/07/03 01:30:12;;;;;;;10.52;8.75;;;13.70;99.90;;;;;;6269924;28;20045;-78
2021/07/03 01:33:14;;;;;;;11.00;8.50;;;13.70;99.90;;;;;;6270240;28;20080;-78
2021/07/03 01:36:16;;;;;;;12.85;9.30;;;13.70;99.90;;;;;;6269860;28;20128;-78
2021/07/03 01:39:20;;;;;;;14.85;10.20;;;13.70;99.90;;;;;;6272736;28;20574;-78
2021/07/03 01:42:21;;;;;;;16.75;12.15;;;13.70;99.90;;;;;;6274733;28;20102;-77
2021/07/03 01:45:23;;;;;;;13.00;11.05;;;13.60;99.90;;;;;;6275073;28;20217;-78
2021/07/03 01:48:27;;;;;;;13.98;12.45;;;13.60;99.90;;;;;;6290169;28;20637;-78
2021/07/03 01:51:29;;;;;;;13.35;10.00;;;13.50;99.90;;;;;;6274619;28;20472;-78
2021/07/03 01:54:32;;;;;;;14.40;11.77;;;13.50;99.90;;;;;;6274937;28;20127;-78
2021/07/03 01:57:34;;;;;;;10.93;9.82;;;13.50;99.90;;;;;;6274700;28;20187;-78
2021/07/03 02:00:36;;;;;;;12.65;10.13;;;13.40;99.90;;;;;;6274278;28;20437;-78
2021/07/03 02:03:38;;;;;;;15.82;10.77;;;13.30;99.90;;;;;;6274317;28;20135;-77
2021/07/03 02:06:40;;;;;;;10.93;9.82;;;13.30;99.90;;;;;;6273845;28;20047;-77
2021/07/03 02:09:43;;;;;;;13.45;10.27;;;13.30;99.90;;;;;;6274951;28;20099;-78
2021/07/03 02:12:45;;;;;;;11.65;9.63;;;13.30;99.90;;;;;;6274104;28;20536;-78
2021/07/03 02:15:47;;;;;;;10.27;9.27;;;13.30;99.90;;;;;;6273853;28;20532;-78
2021/07/03 02:18:49;;;;;;;11.18;8.57;;;13.20;99.90;;;;;;6274418;28;20118;-78
2021/07/03 02:21:50;;;;;;;12.30;9.13;;;13.10;99.90;;;;;;6274360;28;20053;-77
2021/07/03 02:24:54;;;;;;;11.43;9.18;;;13.10;99.90;;;;;;6274335;28;20045;-78
2021/07/03 02:27:55;;;;;;;11.85;10.20;;;13.10;99.90;;;;;;6273517;28;20049;-78
2021/07/03 02:30:57;;;;;;;12.35;8.98;;;13.10;99.90;;;;;;6274011;28;20163;-77
2021/07/03 02:33:59;;;;;;;10.95;9.48;;;13.00;99.90;;;;;;6273491;28;20156;-77
2021/07/03 02:37:02;;;;;;;14.88;7.85;;;13.00;99.90;;;;;;6274166;28;20621;-77
2021/07/03 02:40:08;;;;;;;13.95;12.00;;;12.90;99.90;;;;;;6273772;28;20041;-77
2021/07/03 02:43:12;;;;;;;11.73;10.15;;;12.90;99.90;;;;;;6274304;28;20057;-77
2021/07/03 02:46:14;;;;;;;12.00;10.13;;;12.90;99.90;;;;;;6273228;28;20041;-77
2021/07/03 02:49:20;;;;;;;11.15;9.93;;;12.90;99.90;;;;;;6282617;28;20041;-77
2021/07/03 02:52:21;;;;;;;11.93;9.48;;;12.80;99.90;;;;;;6299110;28;20135;-77
2021/07/03 02:55:25;;;;;;;17.40;8.93;;;12.80;99.90;;;;;;6298080;28;20424;-78
2021/07/03 02:58:27;;;;;;;12.65;9.00;;;12.90;99.90;;;;;;6299067;28;20036;-77
2021/07/03 03:01:29;;;;;;;9.25;8.35;;;12.80;99.90;;;;;;6302559;28;20080;-77
2021/07/03 03:04:30;;;;;;;11.90;9.57;;;12.80;99.90;;;;;;6301596;28;20406;-77
2021/07/03 03:07:33;;;;;;;17.52;8.55;;;12.80;99.90;;;;;;6301280;28;20112;-78
2021/07/03 03:10:36;;;;;;;12.13;8.93;;;12.70;99.90;;;;;;6302792;28;20040;-77
2021/07/03 03:13:38;;;;;;;10.52;9.40;;;12.80;99.90;;;;;;6303677;28;20048;-77
2021/07/03 03:16:39;;;;;;;11.52;8.75;;;12.80;99.90;;;;;;6298296;28;20044;-77
2021/07/03 03:19:41;;;;;;;13.80;9.52;;;12.80;99.90;;;;;;6297226;28;20590;-77
2021/07/03 03:22:44;;;;;;;10.07;8.60;;;12.80;99.90;;;;;;6297402;28;20044;-77
2021/07/03 03:25:47;;;;;;;11.27;8.73;;;12.80;99.90;;;;;;6297627;28;20056;-77
2021/07/03 03:28:49;;;;;;;9.57;8.57;;;12.80;99.90;;;;;;6297022;28;20135;-77
2021/07/03 03:31:50;;;;;;;9.63;8.63;;;12.70;99.90;;;;;;6297329;28;20603;-77
2021/07/03 03:34:52;;;;;;;10.35;8.68;;;12.70;99.90;;;;;;6296608;28;20094;-77
2021/07/03 03:37:54;;;;;;;13.48;8.85;;;12.70;99.90;;;;;;6296767;28;20044;-77
2021/07/03 03:40:57;;;;;;;10.70;9.30;;;12.70;99.90;;;;;;6297050;28;20090;-77
2021/07/03 03:43:59;;;;;;;13.60;9.00;;;12.70;99.90;;;;;;6296603;28;20041;-77
2021/07/03 03:47:01;;;;;;;8.82;7.85;;;12.70;99.90;;;;;;6296301;28;20131;-77
2021/07/03 03:50:04;;;;;;;8.55;7.47;;;12.70;99.90;;;;;;6290329;28;20053;-77
2021/07/03 03:53:06;;;;;;;10.85;8.43;;;12.70;99.90;;;;;;6296764;28;20080;-77
2021/07/03 03:56:09;;;;;;;11.45;8.93;;;12.70;99.90;;;;;;6296098;28;20118;-77
2021/07/03 03:59:12;;;;;;;9.45;7.68;;;12.80;99.90;;;;;;6296665;28;20138;-77
2021/07/03 04:02:14;;;;;;;10.18;8.77;;;12.80;99.90;;;;;;6295340;28;20052;-77
2021/07/03 04:05:16;;;;;;;10.13;8.55;;;12.80;99.90;;;;;;6296740;28;20101;-77
2021/07/03 04:08:18;;;;;;;10.40;8.05;;;12.80;99.90;;;;;;6295696;28;20127;-77
2021/07/03 04:11:21;;;;;;;10.70;7.97;;;12.90;99.90;;;;;;6296267;28;20524;-78
2021/07/03 04:14:23;;;;;;;9.90;8.90;;;13.00;99.90;;;;;;6295840;28;20651;-77
2021/07/03 04:17:25;;;;;;;9.13;8.23;;;13.10;99.90;;;;;;6295922;28;20620;-79
2021/07/03 04:20:27;;;;;;;11.77;7.45;;;13.20;99.90;;;;;;6296332;28;20045;-78
2021/07/03 04:23:29;;;;;;;8.80;7.40;;;13.20;99.90;;;;;;6295584;28;20067;-77
2021/07/03 04:26:32;;;;;;;8.40;7.40;;;13.30;99.90;;;;;;6295519;28;20166;-77
2021/07/03 04:29:34;;;;;;;8.52;7.22;;;13.40;99.90;;;;;;6296360;28;20186;-78
2021/07/03 04:32:36;;;;;;;11.23;9.25;;;13.40;99.90;;;;;;6295927;28;20048;-78
2021/07/03 04:35:38;;;;;;;12.27;8.25;;;13.50;99.90;;;;;;6295486;28;20128;-77
2021/07/03 04:38:40;;;;;;;9.75;8.75;;;13.70;99.90;;;;;;6295723;28;20079;-77
2021/07/03 04:41:43;;;;;;;9.65;8.65;;;13.80;99.90;;;;;;6296306;28;20139;-78
2021/07/03 04:44:45;;;;;;;9.90;8.65;;;14.00;99.90;;;;;;6295658;28;20127;-77
2021/07/03 04:47:47;;;;;;;9.45;7.90;;;14.30;99.90;;;;;;6295205;28;20044;-78
2021/07/03 04:50:49;;;;;;;10.98;7.85;;;14.50;99.90;;;;;;6285669;28;20102;-78
2021/07/03 04:53:51;;;;;;;8.70;7.05;;;14.60;99.90;;;;;;6270249;28;20083;-78
2021/07/03 04:57:06;;;;;;;8.77;7.20;;;14.80;99.90;;;;;;6270300;28;20103;-78
2021/07/03 05:00:09;;;;;;;9.00;7.53;;;15.00;99.90;;;;;;6270583;28;20055;-78
2021/07/03 05:03:11;;;;;;;8.45;7.47;;;15.10;99.90;;;;;;6270949;28;20076;-78
2021/07/03 05:06:13;;;;;;;8.55;7.00;;;15.30;99.90;;;;;;6270240;28;20175;-78
2021/07/03 05:09:14;;;;;;;10.32;9.30;;;15.40;99.90;;;;;;6270763;28;20136;-77
2021/07/03 05:12:18;;;;;;;8.10;6.65;;;15.60;99.90;;;;;;6271049;28;20154;-78
2021/07/03 05:15:20;;;;;;;8.77;6.70;;;15.90;99.90;;;;;;6275741;28;20124;-77
2021/07/03 05:18:21;;;;;;;10.45;6.97;;;16.30;99.90;;;;;;6275295;28;20118;-77
2021/07/03 05:21:23;;;;;;;9.50;6.68;;;16.50;99.90;;;;;;6275642;28;20108;-77
2021/07/03 05:24:25;;;;;;;9.55;6.68;;;16.70;99.90;;;;;;6274771;28;20179;-77
2021/07/03 05:27:28;;;;;;;7.53;5.55;;;16.80;99.90;;;;;;6274637;28;20100;-78
2021/07/03 05:30:30;;;;;;;6.60;5.97;;;17.00;99.90;;;;;;6275141;28;20127;-77
2021/07/03 05:33:32;;;;;;;10.07;7.13;;;17.10;99.90;;;;;;6275182;28;20134;-77
2021/07/03 05:36:34;;;;;;;7.85;6.22;;;17.30;99.90;;;;;;6274694;28;20076;-77
2021/07/03 05:39:36;;;;;;;9.32;6.82;;;17.50;99.90;;;;;;6274605;28;20458;-78
2021/07/03 05:42:40;;;;;;;6.80;6.10;;;17.50;99.90;;;;;;6274494;28;20506;-77
2021/07/03 05:45:42;;;;;;;10.07;6.80;;;17.70;99.90;;;;;;6274507;28;20513;-77
2021/07/03 05:48:44;;;;;;;13.60;7.32;;;18.00;99.90;;;;;;6274533;28;20136;-77
2021/07/03 05:51:46;;;;;;;9.02;6.88;;;18.40;99.60;;;;;;6284979;28;20125;-77
2021/07/03 05:54:48;;;;;;;15.02;7.50;;;18.70;98.70;;;;;;6278900;28;20057;-77
2021/07/03 05:57:52;;;;;;;8.18;6.95;;;19.10;97.40;;;;;;6274103;28;20053;-77
2021/07/03 06:00:53;;;;;;;12.10;7.82;;;19.40;95.90;;;;;;6274130;28;20684;-77
2021/07/03 06:03:55;;;;;;;7.55;6.60;;;19.70;94.70;;;;;;6272764;28;20214;-77
2021/07/03 06:06:57;;;;;;;6.95;6.25;;;20.00;93.50;;;;;;6281042;28;20148;-78
2021/07/03 06:09:59;;;;;;;8.90;6.15;;;20.20;92.70;;;;;;6287437;28;20055;-77
2021/07/03 06:13:03;;;;;;;13.13;6.20;;;20.40;92.00;;;;;;6298725;28;20051;-78
2021/07/03 06:16:05;;;;;;;8.43;6.85;;;20.60;91.50;;;;;;6298547;28;20087;-78
2021/07/03 06:19:07;;;;;;;10.40;5.07;;;21.20;90.30;;;;;;6298335;28;20517;-77
2021/07/03 06:22:11;;;;;;;7.80;6.15;;;22.10;86.80;;;;;;6298573;28;20129;-78
2021/07/03 06:25:14;;;;;;;8.23;6.90;;;22.90;81.30;;;;;;6298088;28;20572;-78
2021/07/03 06:28:17;;;;;;;8.70;7.80;;;23.50;77.20;;;;;;6298109;28;20123;-77
2021/07/03 06:31:19;;;;;;;8.75;7.20;;;23.70;74.90;;;;;;6298588;28;20124;-78
2021/07/03 06:34:20;;;;;;;9.07;7.00;;;24.10;73.00;;;;;;6280042;28;20052;-78
2021/07/03 06:37:22;;;;;;;7.70;6.90;;;24.30;71.50;;;;;;6273907;28;20418;-78
2021/07/03 06:40:24;;;;;;;11.13;7.20;;;24.40;70.20;;;;;;6291040;28;20399;-77
2021/07/03 06:43:27;;;;;;;8.18;6.93;;;24.50;69.70;;;;;;6297936;28;20527;-77
2021/07/03 06:46:29;;;;;;;13.65;8.52;;;24.90;68.70;;;;;;6297551;28;20093;-77
2021/07/03 06:49:31;;;;;;;13.80;7.57;;;25.40;66.30;;;;;;6298384;28;20056;-77
2021/07/03 06:52:33;;;;;;;10.60;6.97;;;25.50;65.60;;;;;;6290191;28;20047;-77
2021/07/03 06:55:35;;;;;;;13.85;7.05;;;25.40;65.40;;;;;;6277411;28;20574;-76
2021/07/03 06:58:38;;;;;;;8.85;7.25;;;25.30;65.30;;;;;;6272599;28;20483;-77
2021/07/03 07:01:40;;;;;;;7.68;6.88;;;25.10;65.20;;;;;;6273215;28;20111;-79
2021/07/03 07:04:42;;;;;;;16.00;7.05;;;25.00;66.50;;;;;;6273058;28;20122;-77
2021/07/03 07:07:44;;;;;;;11.82;7.20;;;25.00;66.10;;;;;;6272982;28;20049;-77
2021/07/03 07:10:46;;;;;;;15.73;7.18;;;25.00;65.70;;;;;;6272649;28;20044;-78
2021/07/03 07:13:49;;;;;;;8.52;6.82;;;24.90;66.50;;;;;;6273026;28;20183;-77
2021/07/03 07:16:51;;;;;;;9.82;7.30;;;24.70;66.30;;;;;;6272295;28;20174;-77
2021/07/03 07:19:53;;;;;;;9.10;6.78;;;24.60;66.60;;;;;;6274557;28;20179;-78
2021/07/03 07:22:54;;;;;;;7.43;6.20;;;24.50;67.10;;;;;;6274860;28;20113;-80
2021/07/03 07:25:56;;;;;;;7.50;5.85;;;24.70;67.80;;;;;;6274876;28;20495;-77
2021/07/03 07:29:00;;;;;;;7.80;7.03;;;25.00;66.70;;;;;;6274959;28;20094;-78
2021/07/03 07:32:02;;;;;;;6.95;6.25;;;25.40;65.40;;;;;;6277466;28;20063;-78
2021/07/03 07:35:04;;;;;;;11.68;7.00;;;25.30;65.10;;;;;;6273614;28;20075;-78
2021/07/03 07:38:06;;;;;;;9.43;8.40;;;25.00;66.20;;;;;;6272597;28;20459;-79
2021/07/03 07:41:08;;;;;;;7.00;6.03;;;24.70;67.30;;;;;;6275243;28;20076;-78
2021/07/03 07:44:11;;;;;;;6.63;5.93;;;24.70;67.60;;;;;;6274607;28;20140;-79
2021/07/03 07:47:13;;;;;;;7.90;6.28;;;24.50;68.20;;;;;;6274381;28;20114;-78
2021/07/03 07:50:15;;;;;;;8.23;5.97;;;24.50;67.60;;;;;;6274869;28;20124;-78
2021/07/03 07:53:17;;;;;;;8.52;5.45;;;24.60;66.60;;;;;;6279077;28;20045;-79
2021/07/03 07:56:19;;;;;;;6.40;5.75;;;24.70;65.60;;;;;;6280355;28;20128;-78
2021/07/03 07:59:22;;;;;;;6.43;5.82;;;24.70;65.50;;;;;;6275410;28;20053;-79
2021/07/03 08:02:24;;;;;;;7.32;5.90;;;24.80;65.40;;;;;;6272822;28;20562;-78
2021/07/03 08:05:26;;;;;;;9.48;6.30;;;24.90;64.70;;;;;;6274099;28;20129;-79
2021/07/03 08:08:28;;;;;;;5.32;4.82;;;24.90;64.50;;;;;;6272791;28;20076;-79
2021/07/03 08:11:30;;;;;;;6.47;5.22;;;25.10;63.70;;;;;;6273037;28;20041;-79
2021/07/03 08:14:33;;;;;;;5.30;4.85;;;25.30;62.80;;;;;;6291088;28;20068;-79
2021/07/03 08:17:42;;;;;;;5.38;4.57;;;25.40;62.00;;;;;;6299636;28;20071;-79
2021/07/03 08:20:44;;;;;;;4.97;4.47;;;25.50;61.90;;;;;;6300426;28;20055;-79
2021/07/03 08:23:45;;;;;;;6.07;5.50;;;25.60;60.50;;;;;;6299630;28;20873;-80
2021/07/03 08:26:47;;;;;;;6.40;5.80;;;25.80;60.10;;;;;;6280065;28;20041;-79
2021/07/03 08:29:50;;;;;;;9.32;5.18;;;25.90;60.00;;;;;;6274397;28;20460;-79
2021/07/03 08:32:52;;;;;;;6.22;5.65;;;26.00;59.40;;;;;;6274973;28;20119;-79
2021/07/03 08:35:54;;;;;;;6.30;5.43;;;26.00;59.40;;;;;;6275259;28;20139;-79
2021/07/03 08:38:56;;;;;;;6.53;4.90;;;26.00;59.20;;;;;;6274312;28;20061;-80
2021/07/03 08:41:58;;;;;;;6.70;6.10;;;26.20;58.60;;;;;;6275705;28;20052;-79
2021/07/03 08:45:01;;;;;;;8.43;5.60;;;26.20;58.60;;;;;;6275492;28;20052;-79
2021/07/03 08:48:04;;;;;;;6.13;5.53;;;26.30;59.00;;;;;;6274276;28;20124;-80
2021/07/03 08:51:05;;;;;;;9.63;5.40;;;26.50;58.60;;;;;;6274830;28;20661;-80
2021/07/03 08:54:07;;;;;;;6.40;5.25;;;26.60;58.60;;;;;;6273894;28;20514;-79
2021/07/03 08:57:12;;;;;;;5.55;5.03;;;26.60;55.90;;;;;;6295409;28;20198;-78
2021/07/03 09:00:33;;;;;;;6.45;5.85;;;26.30;56.90;;;;;;6322772;28;20393;-80
2021/07/03 09:03:35;;;;;;;4.57;4.18;;;26.40;57.70;;;;;;6324381;28;20075;-79
2021/07/03 09:06:37;;;;;;;7.05;4.32;;;26.60;57.30;;;;;;6323699;28;20121;-79
2021/07/03 09:09:39;;;;;;;6.38;5.15;;;26.60;56.50;;;;;;6324638;28;20079;-79
2021/07/03 09:12:40;;;;;;;6.13;4.57;;;26.70;56.30;;;;;;6323413;28;20402;-79
2021/07/03 09:15:45;;;;;;;6.45;5.07;;;27.00;54.90;;;;;;6307126;28;20060;-78
2021/07/03 09:18:55;;;;;;;4.68;4.28;;;27.20;55.10;;;;;;6297953;28;20075;-78
2021/07/03 09:21:58;;;;;;;4.78;4.22;;;27.40;54.10;;;;;;6297138;28;20045;-80
2021/07/03 09:25:00;;;;;;;5.40;4.80;;;27.50;53.90;;;;;;6298452;28;20154;-79
2021/07/03 09:28:08;;;;;;;5.70;4.13;;;27.50;52.30;;;;;;6299276;28;20040;-78
2021/07/03 09:31:13;;;;;;;4.45;3.67;;;27.50;51.90;;;;;;6298093;28;20179;-78
2021/07/03 09:34:15;;;;;;;4.30;3.90;;;27.40;50.80;;;;;;6298754;28;20067;-79
2021/07/03 09:37:20;;;;;;;6.80;3.50;;;27.50;50.80;;;;;;6299104;28;20059;-79
2021/07/03 09:40:22;;;;;;;6.03;3.90;;;27.60;51.20;;;;;;6297601;28;20044;-78
2021/07/03 09:43:24;;;;;;;3.47;3.17;;;27.70;48.70;;;;;;6297716;28;20070;-78
2021/07/03 09:46:30;;;;;;;5.18;4.10;;;27.80;50.80;;;;;;6296700;28;20141;-78
2021/07/03 09:49:32;;;;;;;;;;;28.00;50.40;;;;;;6298104;28;20128;-78
2021/07/03 09:52:34;;;;;;;;;;;28.40;50.70;;;;;;6296766;28;20011;-79
2021/07/03 09:55:36;;;;;;;;;;;28.50;49.60;;;;;;6295793;28;19924;-79
2021/07/03 09:58:38;;;;;;;;;;;28.70;49.60;;;;;;6303460;28;19946;-79
2021/07/03 10:01:43;;;;;;;;;;;28.50;49.50;;;;;;6327072;28;19926;-79
2021/07/03 10:06:56;;;;;;;5.30;4.80;;;28.40;48.70;;;;;;6360267;27;20438;-78
2021/07/03 10:10:03;;;;;;;5.45;4.93;;;28.90;47.30;;;;;;6342036;27;20459;-76
2021/07/03 10:13:09;;;;;;;5.90;4.38;;;29.40;46.70;;;;;;6342944;28;20910;-79
2021/07/03 10:16:13;;;;;;;4.95;4.18;;;29.90;45.90;;;;;;6343937;27;20417;-77
2021/07/03 10:19:19;;;;;;;4.78;4.30;;;30.50;43.60;;;;;;6343170;27;20409;-79
2021/07/03 10:22:24;;;;;;;4.65;4.25;;;31.20;44.70;;;;;;6295041;27;20427;-79
2021/07/03 10:25:33;;;;;;;4.93;4.18;;;31.50;42.20;;;;;;6317051;28;20777;-78
2021/07/03 10:28:37;;;;;;;5.05;4.57;;;31.50;42.40;;;;;;6316884;28;20468;-78
2021/07/03 10:31:39;;;;;;;5.18;4.20;;;31.20;42.50;;;;;;6317848;28;20895;-80
2021/07/03 10:34:40;;;;;;;6.22;4.35;;;31.20;41.90;;;;;;6318763;28;20411;-76
2021/07/03 10:37:44;;;;;;;4.38;3.85;;;31.30;41.30;;;;;;6316959;28;20427;-78
2021/07/03 10:40:45;;;;;;;5.10;3.88;;;31.50;41.00;;;;;;6315793;28;20506;-78
2021/07/03 10:43:49;;;;;;;4.43;4.03;;;31.70;41.30;;;;;;6317511;28;20434;-78
2021/07/03 10:46:54;;;;;;;4.03;3.73;;;31.80;41.80;;;;;;6316744;28;20509;-78
2021/07/03 10:49:56;;;;;;;4.90;3.90;;;32.20;41.10;;;;;;6318034;28;20795;-79
2021/07/03 10:52:59;;;;;;;4.53;4.13;;;32.00;39.10;;;;;;6318653;28;20427;-78
2021/07/03 10:56:10;;;;;;;7.00;3.90;;;31.80;39.00;;;;;;6316789;28;20451;-78
2021/07/03 10:59:13;;;;;;;7.60;3.95;;;31.90;40.10;;;;;;6338409;27;20534;-78
2021/07/03 11:02:16;;;;;;;8.50;3.47;;;32.20;38.80;;;;;;6340508;27;20498;-78
2021/07/03 11:05:19;;;;;;;5.15;3.92;;;32.40;37.80;;;;;;6341224;28;20433;-78
2021/07/03 11:08:23;;;;;;;3.72;3.42;;;32.50;38.50;;;;;;6335575;27;20915;-78
2021/07/03 11:11:24;;;;;;;7.00;3.97;;;32.60;38.00;;;;;;6329097;28;20543;-78
2021/07/03 11:14:27;;;;;;;3.95;3.65;;;32.90;38.10;;;;;;6340528;27;20425;-78
2021/07/03 11:17:29;;;;;;;3.95;3.47;;;33.10;37.10;;;;;;6327299;28;20425;-77
2021/07/03 11:20:33;;;;;;;3.75;3.38;;;33.20;35.30;;;;;;6324503;28;20497;-78
2021/07/03 11:23:36;;;;;;;4.25;3.85;;;33.30;35.50;;;;;;6324429;28;20544;-78
2021/07/03 11:26:38;;;;;;;5.22;3.20;;;33.30;35.40;;;;;;6323471;28;20402;-78
2021/07/03 11:29:44;;;;;;;4.13;3.70;;;33.50;34.10;;;;;;6324513;28;20562;-78
2021/07/03 11:32:50;;;;;;;5.07;4.57;;;33.50;35.80;;;;;;6298237;28;20416;-77
2021/07/03 11:35:52;;;;;;;4.80;4.38;;;33.60;37.60;;;;;;6275925;28;20432;-78
2021/07/03 11:39:00;;;;;;;5.55;3.67;;;33.50;36.60;;;;;;6277583;28;20551;-78
2021/07/03 11:42:03;;;;;;;4.55;4.15;;;33.50;37.10;;;;;;6274925;28;20520;-79
2021/07/03 11:45:08;;;;;;;7.82;3.28;;;33.50;36.10;;;;;;6274781;28;20464;-78
2021/07/03 11:48:11;;;;;;;7.20;3.50;;;33.50;34.40;;;;;;6275283;28;20792;-78
2021/07/03 11:51:14;;;;;;;3.88;3.58;;;33.40;35.30;;;;;;6275272;28;20511;-78
2021/07/03 11:54:20;;;;;;;3.88;3.00;;;33.30;35.60;;;;;;6275123;28;20882;-78
2021/07/03 11:57:22;;;;;;;4.07;3.30;;;33.40;35.10;;;;;;6276869;28;20456;-78
2021/07/03 12:00:25;;;;;;;3.67;3.38;;;33.50;34.50;;;;;;6252971;28;20435;-78
2021/07/03 12:03:31;;;;;;;3.42;3.13;;;33.50;34.20;;;;;;6250165;28;20497;-78
2021/07/03 12:06:33;;;;;;;3.35;3.00;;;33.70;34.00;;;;;;6249566;28;20506;-78
2021/07/03 12:09:37;;;;;;;10.40;4.28;;;33.80;35.10;;;;;;6250970;28;20435;-79
2021/07/03 12:12:39;;;;;;;6.72;3.63;;;33.90;34.00;;;;;;6252841;28;20442;-80
2021/07/03 12:15:41;;;;;;;3.90;3.50;;;34.00;33.70;;;;;;6273864;28;21041;-79
2021/07/03 12:18:46;;;;;;;4.20;3.10;;;34.10;33.50;;;;;;6274489;28;20897;-80
2021/07/03 12:21:48;;;;;;;3.35;3.05;;;34.30;33.50;;;;;;6275276;28;20444;-77
2021/07/03 12:24:51;;;;;;;4.45;3.50;;;34.40;32.90;;;;;;6324492;28;20564;-77
2021/07/03 12:27:56;;;;;;;3.38;3.08;;;34.60;32.40;;;;;;6322745;27;20410;-79
2021/07/03 12:31:08;;;;;;;3.72;3.13;;;34.70;32.90;;;;;;6325500;28;20467;-79
2021/07/03 12:34:12;;;;;;;3.50;3.20;;;34.70;31.90;;;;;;6321849;28;20809;-78
2021/07/03 12:37:16;;;;;;;4.00;3.60;;;34.50;32.20;;;;;;6323200;28;20772;-78
2021/07/03 12:40:20;;;;;;;3.30;3.00;;;34.30;33.30;;;;;;6322329;28;20781;-79
2021/07/03 12:43:30;;;;;;;4.10;3.00;;;34.30;32.90;;;;;;6323339;28;20891;-79
2021/07/03 12:46:33;;;;;;;3.10;2.72;;;34.30;32.20;;;;;;6322814;28;20437;-78
2021/07/03 12:49:36;;;;;;;2.80;2.38;;;34.40;31.80;;;;;;6323321;28;20453;-79
2021/07/03 12:52:41;;;;;;;3.67;2.80;;;34.40;31.70;;;;;;6323292;28;20480;-79
2021/07/03 12:55:45;;;;;;;2.97;2.67;;;34.60;31.60;;;;;;6323312;28;20412;-79
2021/07/03 12:58:57;;;;;;;4.18;2.85;;;34.60;31.10;;;;;;6313571;28;20504;-78
2021/07/03 13:02:04;;;;;;;2.95;2.75;;;34.50;31.10;;;;;;6321794;28;20436;-79
2021/07/03 13:05:08;;;;;;;3.17;2.87;;;34.40;31.60;;;;;;6324500;28;20437;-79
2021/07/03 13:08:10;;;;;;;7.15;3.00;;;;;;;;;;6323822;28;20524;-79
2021/07/03 13:11:13;;;;;;;2.78;2.30;;;34.60;30.50;;;;;;6324031;28;20903;-79
2021/07/03 13:14:15;;;;;;;2.78;2.20;;;34.60;30.90;;;;;;6323916;28;20455;-79
2021/07/03 13:17:17;;;;;;;2.75;2.50;;;34.70;30.30;;;;;;6324011;28;20487;-80
2021/07/03 13:20:18;;;;;;;3.42;2.53;;;34.70;30.40;;;;;;6323783;28;20417;-78
2021/07/03 13:23:20;;;;;;;4.18;2.90;;;34.40;29.80;;;;;;6323212;28;20414;-80
2021/07/03 13:26:23;;;;;;;5.15;2.80;;;34.40;30.40;;;;;;6323101;28;20417;-79
2021/07/03 13:29:25;;;;;;;3.38;3.08;;;34.60;30.30;;;;;;6323775;28;20508;-79
2021/07/03 13:32:27;;;;;;;3.35;2.70;;;34.70;30.10;;;;;;6324248;28;20515;-79
2021/07/03 13:35:29;;;;;;;2.60;2.40;;;34.80;30.30;;;;;;6323733;28;20410;-79
2021/07/03 13:38:31;;;;;;;3.58;3.28;;;34.80;30.30;;;;;;6322362;28;20410;-79
2021/07/03 13:41:34;;;;;;;3.05;2.75;;;34.80;30.30;;;;;;6324075;28;21004;-79
2021/07/03 13:44:36;;;;;;;4.40;3.33;;;34.80;29.70;;;;;;6323339;28;20927;-78
2021/07/03 13:47:38;;;;;;;2.88;2.63;;;34.70;30.50;;;;;;6323555;28;20489;-79
2021/07/03 13:50:40;;;;;;;3.90;2.80;;;34.70;30.10;;;;;;6322894;28;20989;-78
2021/07/03 13:53:42;;;;;;;3.28;2.97;;;34.80;31.00;;;;;;6322811;28;20933;-76
2021/07/03 13:56:45;;;;;;;3.30;3.00;;;35.00;30.00;;;;;;6321510;28;20572;-76
2021/07/03 13:59:47;;;;;;;2.88;2.47;;;34.90;31.10;;;;;;6318491;28;20423;-77
2021/07/03 14:02:49;;;;;;;2.95;2.33;;;35.10;30.40;;;;;;6317701;28;20445;-77
2021/07/03 14:05:51;;;;;;;3.25;2.65;;;35.20;30.40;;;;;;6318804;28;21185;-77
2021/07/03 14:08:53;;;;;;;4.77;2.90;;;35.10;30.10;;;;;;6319524;28;21028;-77
2021/07/03 14:11:56;;;;;;;2.88;2.60;;;34.90;30.00;;;;;;6319754;28;20426;-77
2021/07/03 14:14:58;;;;;;;4.82;2.97;;;34.50;30.00;;;;;;6319295;28;20495;-76
2021/07/03 14:18:00;;;;;;;4.15;2.60;;;34.40;30.80;;;;;;6318990;28;20970;-77
2021/07/03 14:21:02;;;;;;;2.78;2.58;;;34.50;30.80;;;;;;6320159;28;20571;-77
2021/07/03 14:24:05;;;;;;;2.70;2.50;;;34.40;30.40;;;;;;6319065;28;20866;-77
2021/07/03 14:27:08;;;;;;;3.13;2.45;;;34.30;30.30;;;;;;6318626;28;20437;-78
2021/07/03 14:30:11;;;;;;;3.42;3.13;;;34.10;31.10;;;;;;6318663;28;20502;-77
2021/07/03 14:33:12;;;;;;;3.47;2.37;;;34.10;31.80;;;;;;6319067;28;20457;-77
2021/07/03 14:36:14;;;;;;;2.95;2.75;;;33.90;30.50;;;;;;6318726;27;20967;-78
2021/07/03 14:39:16;;;;;;;3.40;2.70;;;33.70;30.50;;;;;;6318558;28;20414;-77
2021/07/03 14:42:19;;;;;;;3.50;2.47;;;33.50;32.90;;;;;;6319109;28;20422;-77
2021/07/03 14:45:21;;;;;;;2.40;2.20;;;33.30;31.10;;;;;;6313909;28;20889;-77
2021/07/03 14:48:23;;;;;;;4.05;2.55;;;33.10;31.60;;;;;;6268381;28;20985;-77
2021/07/03 14:51:25;;;;;;;2.60;2.40;;;33.10;32.00;;;;;;6270064;28;20543;-77
2021/07/03 14:54:27;;;;;;;3.50;2.43;;;33.00;31.80;;;;;;6274526;28;20943;-77
2021/07/03 14:57:30;;;;;;;2.20;2.00;;;33.00;31.40;;;;;;6273436;28;20514;-77
2021/07/03 15:00:32;;;;;;;3.20;2.30;;;33.10;30.80;;;;;;6263892;28;20537;-77
2021/07/03 15:03:34;;;;;;;2.40;2.20;;;33.10;31.20;;;;;;6272214;28;20413;-76
2021/07/03 15:06:36;;;;;;;3.20;2.35;;;32.90;30.80;;;;;;6272473;28;20500;-77
2021/07/03 15:09:37;;;;;;;3.28;2.30;;;32.90;30.60;;;;;;6273519;28;20433;-77
2021/07/03 15:12:41;;;;;;;2.20;2.00;;;32.90;30.80;;;;;;6272292;28;20492;-77
2021/07/03 15:15:43;;;;;;;4.13;2.20;;;32.90;30.60;;;;;;6272556;28;20878;-77
2021/07/03 15:18:45;;;;;;;2.92;2.22;;;32.90;30.00;;;;;;6272921;28;20421;-77
2021/07/03 15:21:47;;;;;;;2.00;1.90;;;32.80;31.60;;;;;;6273476;28;20431;-77
2021/07/03 15:24:49;;;;;;;2.60;1.67;;;32.70;30.50;;;;;;6272779;28;20420;-78
2021/07/03 15:27:52;;;;;;;2.83;2.22;;;32.60;31.70;;;;;;6272296;28;20535;-77
2021/07/03 15:30:55;;;;;;;2.28;2.08;;;32.60;30.90;;;;;;6272467;28;20496;-77
2021/07/03 15:33:56;;;;;;;3.45;2.10;;;32.50;30.90;;;;;;6272551;28;20434;-77
2021/07/03 15:36:58;;;;;;;3.33;2.47;;;32.50;33.30;;;;;;6272366;28;20814;-77
2021/07/03 15:40:01;;;;;;;3.05;2.75;;;32.50;32.40;;;;;;6272114;28;20433;-77
2021/07/03 15:43:04;;;;;;;2.72;2.33;;;32.50;31.70;;;;;;6272251;28;20485;-77
2021/07/03 15:46:06;;;;;;;2.72;2.35;;;32.40;31.60;;;;;;6271765;28;20517;-77
2021/07/03 15:49:08;;;;;;;3.47;2.58;;;32.40;32.60;;;;;;6272609;28;20918;-77
2021/07/03 15:52:10;;;;;;;3.95;3.63;;;32.30;32.80;;;;;;6272044;28;20409;-77